Time;durP1;ratioP1;P1;durP2;ratioP2;P2;SDS_P1;SDS_P2;PMS_P1;PMS_P2;Temp;Humidity;BMP_temperature;BMP_pressure;BME280_temperature;BME280_humidity;BME280_pressure;Samples;Min_cycle;Max_cycle;Signal;HPM_P1;HPM_P2
2024/02/02 00:00:08;;;;;;;7.93;4.70;;;0.60;99.90;;;1.23;100.00;99648.66;5040117;28;21014;-76
2024/02/02 00:02:39;;;;;;;9.17;4.33;;;0.60;99.90;;;1.15;100.00;99648.28;5040039;28;20677;-77
2024/02/02 00:05:09;;;;;;;12.40;4.97;;;0.50;99.90;;;1.17;100.00;99650.78;5039108;28;20992;-76
2024/02/02 00:07:37;;;;;;;11.57;4.17;;;0.50;99.90;;;1.14;100.00;99651.78;5039412;28;20500;-76
2024/02/02 00:10:07;;;;;;;4.97;3.97;;;0.50;99.90;;;1.10;100.00;99663.19;5041096;28;20539;-77
2024/02/02 00:12:36;;;;;;;8.30;3.97;;;0.40;99.90;;;1.05;100.00;99672.06;5038465;28;20964;-76
2024/02/02 00:15:06;;;;;;;7.60;3.63;;;0.40;99.90;;;0.92;100.00;99656.50;5040419;28;20469;-77
2024/02/02 00:17:34;;;;;;;8.33;3.60;;;0.30;99.90;;;1.08;100.00;99657.28;5039951;28;20461;-76
2024/02/02 00:20:05;;;;;;;8.47;4.57;;;0.40;99.90;;;1.14;100.00;99654.38;5040257;28;20819;-76
2024/02/02 00:22:34;;;;;;;7.20;3.70;;;0.50;99.90;;;1.05;100.00;99648.88;5039721;28;20475;-77
2024/02/02 00:25:03;;;;;;;9.60;4.17;;;0.40;99.90;;;1.04;100.00;99645.50;5042014;28;20556;-77
2024/02/02 00:27:32;;;;;;;16.20;4.27;;;0.40;99.90;;;1.10;100.00;99642.56;5040462;28;20465;-77
2024/02/02 00:30:00;;;;;;;14.27;4.63;;;0.50;99.90;;;1.10;100.00;99650.31;5043167;28;20642;-76
2024/02/02 00:32:29;;;;;;;7.33;3.80;;;0.50;99.90;;;1.16;100.00;99654.25;5041329;28;20971;-77
2024/02/02 00:34:57;;;;;;;6.60;3.50;;;0.50;99.90;;;1.20;100.00;99656.56;5041541;28;20859;-77
2024/02/02 00:37:27;;;;;;;13.47;3.93;;;0.50;99.90;;;1.20;100.00;99656.56;5039733;28;20459;-76
2024/02/02 00:39:56;;;;;;;4.57;3.77;;;0.50;99.90;;;1.22;100.00;99659.03;5040481;28;20472;-76
2024/02/02 00:42:24;;;;;;;8.20;4.20;;;0.50;99.90;;;1.30;100.00;99656.88;5040826;28;20769;-77
2024/02/02 00:44:53;;;;;;;9.90;4.57;;;0.60;99.90;;;1.31;100.00;99653.38;5040528;28;20499;-76
2024/02/02 00:47:21;;;;;;;11.50;5.00;;;0.70;99.90;;;1.31;100.00;99654.22;5040225;28;20463;-77
2024/02/02 00:49:50;;;;;;;7.60;4.30;;;0.70;99.90;;;1.46;100.00;99648.16;5040670;28;20488;-77
2024/02/02 00:52:19;;;;;;;10.00;4.60;;;0.80;99.90;;;1.49;100.00;99640.22;5040733;28;20467;-76
2024/02/02 00:54:48;;;;;;;4.80;3.77;;;0.80;99.90;;;1.37;100.00;99625.50;5041647;28;20475;-77
2024/02/02 00:57:17;;;;;;;7.67;4.13;;;0.70;99.90;;;1.34;100.00;99628.28;5042592;28;20472;-77
2024/02/02 00:59:47;;;;;;;7.90;4.33;;;0.70;99.90;;;1.43;100.00;99622.56;5042226;28;20475;-76
2024/02/02 01:02:16;;;;;;;7.77;4.17;;;0.80;99.90;;;1.49;100.00;99629.91;5042044;28;20509;-76
2024/02/02 01:04:45;;;;;;;12.37;4.27;;;0.80;99.90;;;1.48;100.00;99623.13;5041564;28;20480;-77
2024/02/02 01:07:16;;;;;;;6.37;4.33;;;0.80;99.90;;;1.57;100.00;99620.91;5042165;28;20455;-77
2024/02/02 01:09:46;;;;;;;7.67;4.17;;;1.00;99.90;;;1.58;100.00;99605.38;5040582;28;21107;-77
2024/02/02 01:12:16;;;;;;;10.57;4.77;;;1.00;99.90;;;1.57;100.00;99610.59;5041179;28;20475;-76
2024/02/02 01:14:48;;;;;;;8.40;3.60;;;1.00;99.90;;;1.56;100.00;99612.38;5041885;28;20467;-76
2024/02/02 01:17:16;;;;;;;10.33;4.17;;;1.00;99.90;;;1.56;100.00;99624.44;5042231;28;20529;-77
2024/02/02 01:19:45;;;;;;;5.90;4.33;;;0.90;99.90;;;1.58;100.00;99620.00;5040637;28;20455;-77
2024/02/02 01:22:14;;;;;;;5.40;3.53;;;0.90;99.90;;;1.50;100.00;99623.84;5042887;28;20883;-77
2024/02/02 01:24:42;;;;;;;12.50;4.00;;;0.90;99.90;;;1.40;100.00;99625.31;5042315;28;21466;-77
2024/02/02 01:27:11;;;;;;;8.00;4.60;;;0.80;99.90;;;1.45;100.00;99643.09;5042133;28;20463;-77
2024/02/02 01:29:41;;;;;;;5.93;3.43;;;0.80;99.90;;;1.49;100.00;99647.16;5041207;28;20501;-77
2024/02/02 01:32:10;;;;;;;6.20;3.83;;;0.80;99.90;;;1.55;100.00;99656.25;5039761;28;20468;-76
2024/02/02 01:34:38;;;;;;;13.50;4.20;;;0.90;99.90;;;1.50;100.00;99649.63;5038090;28;20958;-76
2024/02/02 01:37:07;;;;;;;4.87;3.47;;;0.90;99.90;;;1.57;100.00;99664.72;5038931;28;21590;-77
2024/02/02 01:39:35;;;;;;;11.77;3.67;;;1.10;99.90;;;1.60;100.00;99667.16;5039154;28;20866;-76
2024/02/02 01:42:04;;;;;;;7.00;3.73;;;1.00;99.90;;;1.53;100.00;99674.38;5039072;28;20494;-76
2024/02/02 01:44:33;;;;;;;8.20;3.60;;;0.90;99.90;;;1.42;100.00;99645.88;5038825;28;20471;-76
2024/02/02 01:47:04;;;;;;;7.37;3.23;;;0.80;99.90;;;1.51;100.00;99635.00;5038305;28;20467;-76
2024/02/02 01:49:34;;;;;;;7.77;3.90;;;0.90;99.90;;;1.48;100.00;99636.03;5039635;28;20466;-76
2024/02/02 01:52:04;;;;;;;13.37;3.70;;;0.80;99.90;;;1.51;100.00;99635.00;5038485;28;20459;-76
2024/02/02 01:54:33;;;;;;;10.17;4.10;;;0.90;99.90;;;1.55;100.00;99643.38;5040446;28;20485;-77
2024/02/02 01:57:02;;;;;;;5.47;3.50;;;1.00;99.90;;;1.53;100.00;99633.16;5041225;28;20464;-76
2024/02/02 01:59:31;;;;;;;11.97;3.97;;;0.90;99.90;;;1.44;100.00;99623.41;5041455;28;20564;-76
2024/02/02 02:01:59;;;;;;;3.73;2.40;;;0.80;99.90;;;1.51;100.00;99610.06;5040167;28;20850;-76
2024/02/02 02:04:29;;;;;;;9.17;3.67;;;0.90;99.90;;;1.55;100.00;99612.44;5040812;28;21052;-76
2024/02/02 02:06:58;;;;;;;6.57;3.20;;;0.90;99.90;;;1.60;100.00;99618.16;5040160;28;20801;-77
2024/02/02 02:09:27;;;;;;;12.70;3.47;;;1.00;99.90;;;1.63;100.00;99617.97;5040707;28;20841;-77
2024/02/02 02:11:57;;;;;;;7.27;3.37;;;1.00;99.90;;;1.61;100.00;99624.97;5041307;28;21036;-77
2024/02/02 02:14:27;;;;;;;9.27;3.83;;;0.90;99.90;;;1.64;100.00;99625.59;5039829;28;21200;-76
2024/02/02 02:16:56;;;;;;;5.57;3.40;;;1.00;99.90;;;1.62;100.00;99613.75;5038895;28;20457;-76
2024/02/02 02:19:25;;;;;;;7.47;3.40;;;1.00;99.90;;;1.51;100.00;99604.91;5040870;28;20468;-77
2024/02/02 02:21:55;;;;;;;5.20;3.13;;;0.90;99.90;;;1.47;100.00;99608.56;5040725;28;21355;-77
2024/02/02 02:24:23;;;;;;;5.20;3.60;;;0.80;99.90;;;1.47;100.00;99605.16;5041443;28;20482;-76
2024/02/02 02:26:52;;;;;;;4.63;3.30;;;0.80;99.90;;;1.64;100.00;99605.00;5039901;28;20588;-77
2024/02/02 02:29:21;;;;;;;6.60;3.50;;;1.00;99.90;;;1.63;100.00;99597.38;5041601;28;20875;-77
2024/02/02 02:31:54;;;;;;;7.50;3.50;;;1.00;99.90;;;1.61;100.00;99589.72;5039857;28;20507;-76
2024/02/02 02:34:26;;;;;;;9.57;3.70;;;1.00;99.90;;;1.60;100.00;99582.09;5037760;28;20464;-77
2024/02/02 02:36:56;;;;;;;5.73;3.60;;;1.00;99.90;;;1.65;100.00;99591.19;5036221;28;20466;-76
2024/02/02 02:39:25;;;;;;;5.47;3.37;;;1.00;99.90;;;1.71;100.00;99595.13;5039231;28;20470;-77
2024/02/02 02:41:53;;;;;;;12.10;3.50;;;1.10;99.90;;;1.71;100.00;99595.13;5038756;28;20459;-77
2024/02/02 02:44:22;;;;;;;4.27;2.90;;;1.00;99.90;;;1.70;100.00;99588.34;5039964;28;20464;-76
2024/02/02 02:46:51;;;;;;;10.37;3.20;;;1.10;99.90;;;1.78;100.00;99591.25;5036040;28;20502;-77
2024/02/02 02:49:20;;;;;;;7.03;3.47;;;1.20;99.90;;;1.77;100.00;99592.19;5037837;28;20873;-76
2024/02/02 02:51:49;;;;;;;7.80;3.00;;;1.10;99.90;;;1.82;100.00;99587.56;5037818;28;20536;-76
2024/02/02 02:54:19;;;;;;;8.00;3.70;;;1.20;99.90;;;1.79;100.00;99577.44;5039528;28;20726;-76
2024/02/02 02:56:47;;;;;;;7.27;3.20;;;1.20;99.90;;;1.72;100.00;99555.53;5038805;28;20596;-77
2024/02/02 02:59:18;;;;;;;4.40;3.30;;;1.10;99.90;;;1.84;100.00;99554.81;5040173;28;20468;-76
2024/02/02 03:01:47;;;;;;;5.40;2.80;;;1.20;99.90;;;1.88;100.00;99549.34;5039377;28;20530;-77
2024/02/02 03:04:15;;;;;;;6.50;3.37;;;1.20;99.90;;;1.89;100.00;99563.06;5039936;28;20805;-77
2024/02/02 03:06:44;;;;;;;6.13;3.60;;;1.30;99.90;;;1.93;100.00;99554.22;5040300;28;21000;-77
2024/02/02 03:09:13;;;;;;;6.43;3.47;;;1.40;99.90;;;1.89;100.00;99571.63;5038416;28;20669;-77
2024/02/02 03:11:44;;;;;;;4.50;3.10;;;1.30;99.90;;;1.96;100.00;99570.34;5037733;28;20829;-76
2024/02/02 03:14:12;;;;;;;7.20;3.50;;;1.30;99.90;;;2.01;100.00;99562.31;5038660;28;20511;-76
2024/02/02 03:16:41;;;;;;;6.60;3.03;;;1.30;99.90;;;1.94;100.00;99551.53;5038097;28;20465;-76
2024/02/02 03:19:09;;;;;;;8.87;4.07;;;1.30;99.90;;;1.94;100.00;99540.41;5038173;28;20796;-76
2024/02/02 03:21:38;;;;;;;7.13;3.10;;;1.30;99.90;;;2.05;100.00;99532.81;5039726;28;20468;-77
2024/02/02 03:24:09;;;;;;;4.20;3.10;;;1.30;99.90;;;2.12;100.00;99534.06;5039452;28;20472;-76
2024/02/02 03:26:38;;;;;;;7.70;2.93;;;1.50;99.90;;;2.13;100.00;99528.00;5039831;28;21034;-77
2024/02/02 03:29:08;;;;;;;7.40;4.30;;;1.50;99.90;;;1.98;100.00;99532.38;5039564;28;20457;-76
2024/02/02 03:31:36;;;;;;;4.37;2.90;;;1.30;99.90;;;1.93;100.00;99538.75;5037305;28;20479;-77
2024/02/02 03:34:04;;;;;;;10.73;2.90;;;1.30;99.90;;;1.92;100.00;99535.34;5039182;28;20509;-77
2024/02/02 03:36:33;;;;;;;4.90;3.07;;;1.30;99.90;;;1.94;100.00;99530.09;5040702;28;20962;-77
2024/02/02 03:39:02;;;;;;;11.87;4.17;;;1.30;99.90;;;1.91;100.00;99527.69;5038757;28;21077;-76
2024/02/02 03:41:30;;;;;;;11.33;2.97;;;1.30;99.90;;;1.91;100.00;99533.66;5039865;28;21039;-77
2024/02/02 03:43:59;;;;;;;6.63;3.53;;;1.30;99.90;;;1.98;100.00;99534.13;5039047;28;20468;-76
2024/02/02 03:46:29;;;;;;;6.57;3.17;;;1.30;99.90;;;1.93;100.00;99543.91;5038932;28;20500;-77
2024/02/02 03:48:59;;;;;;;6.60;3.20;;;1.30;99.90;;;1.90;100.00;99537.19;5039327;28;20518;-76
2024/02/02 03:51:27;;;;;;;5.97;3.37;;;1.30;99.90;;;1.91;100.00;99535.41;5039184;28;20536;-77
2024/02/02 03:53:56;;;;;;;6.77;3.53;;;1.30;99.90;;;1.97;100.00;99529.91;5039907;28;20494;-76
2024/02/02 03:56:25;;;;;;;9.73;3.33;;;1.30;99.90;;;1.98;100.00;99526.38;5039893;28;20467;-77
2024/02/02 03:58:53;;;;;;;9.90;3.40;;;1.30;99.90;;;2.05;100.00;99521.69;5041592;28;20457;-76
2024/02/02 04:01:22;;;;;;;11.53;3.30;;;1.40;99.90;;;2.02;100.00;99518.34;5043205;28;20463;-76
2024/02/02 04:03:52;;;;;;;18.63;3.67;;;1.40;99.90;;;2.10;100.00;99515.28;5042610;28;21042;-77
2024/02/02 04:06:21;;;;;;;13.00;3.03;;;1.40;99.90;;;2.11;100.00;99513.56;5043137;28;20493;-77
2024/02/02 04:08:49;;;;;;;7.50;3.00;;;1.40;99.90;;;2.16;100.00;99514.06;5042465;28;20991;-77
2024/02/02 04:11:18;;;;;;;4.50;2.70;;;1.50;99.90;;;2.18;100.00;99525.13;5042157;28;20461;-77
2024/02/02 04:13:47;;;;;;;9.80;3.00;;;1.50;99.90;;;2.21;100.00;99518.03;5043550;28;21447;-77
2024/02/02 04:16:15;;;;;;;9.20;3.17;;;1.50;99.90;;;2.20;100.00;99512.94;5042312;28;20468;-76
2024/02/02 04:18:44;;;;;;;3.90;2.83;;;1.50;99.90;;;2.28;100.00;99527.03;5042805;28;20465;-77
2024/02/02 04:21:14;;;;;;;12.83;2.60;;;1.60;99.90;;;2.31;100.00;99524.25;5043713;28;20549;-77
2024/02/02 04:23:42;;;;;;;11.63;2.90;;;1.60;99.90;;;2.32;100.00;99514.75;5042498;28;20459;-77
2024/02/02 04:26:11;;;;;;;7.80;3.00;;;1.70;99.90;;;2.32;100.00;99515.59;5043895;28;20501;-77
2024/02/02 04:28:40;;;;;;;5.13;2.53;;;1.70;99.90;;;2.36;100.00;99529.91;5042182;28;20457;-77
2024/02/02 04:31:09;;;;;;;4.97;2.97;;;1.70;99.90;;;2.36;100.00;99522.19;5042567;28;20465;-76
2024/02/02 04:33:37;;;;;;;7.10;2.73;;;1.80;99.90;;;2.41;100.00;99527.88;5041183;28;20523;-77
2024/02/02 04:36:06;;;;;;;3.60;2.60;;;1.80;99.90;;;2.40;100.00;99530.56;5033215;28;20511;-83
2024/02/02 04:38:36;;;;;;;3.90;3.10;;;1.80;99.90;;;2.45;100.00;99551.75;5037084;28;21149;-77
2024/02/02 04:41:05;;;;;;;7.17;2.77;;;1.80;99.90;;;2.42;100.00;99551.94;5028678;28;20473;-77
2024/02/02 04:43:34;;;;;;;6.00;2.73;;;1.70;99.90;;;2.44;100.00;99556.09;5038566;28;20479;-77
2024/02/02 04:46:02;;;;;;;5.63;2.53;;;1.80;99.90;;;2.46;100.00;99545.66;5033710;28;20519;-77
2024/02/02 04:48:31;;;;;;;9.60;2.70;;;1.80;99.90;;;2.51;100.00;99544.44;5036594;28;20457;-82
2024/02/02 04:50:59;;;;;;;6.43;2.67;;;1.80;99.90;;;2.46;100.00;99541.31;5038503;28;20942;-77
2024/02/02 04:53:28;;;;;;;9.23;2.67;;;1.90;99.90;;;2.49;100.00;99554.03;5037120;28;20492;-77
2024/02/02 04:55:58;;;;;;;6.13;2.63;;;1.90;99.90;;;2.48;100.00;99552.38;5038268;28;20956;-76
2024/02/02 04:58:27;;;;;;;6.03;2.53;;;1.80;99.90;;;2.56;100.00;99551.06;5041855;28;20479;-76
2024/02/02 05:00:56;;;;;;;5.53;2.23;;;1.90;99.90;;;2.54;100.00;99539.06;5042976;28;20901;-77
2024/02/02 05:03:24;;;;;;;10.47;2.80;;;2.00;99.90;;;2.62;100.00;99538.56;5043552;28;20457;-76
2024/02/02 05:05:53;;;;;;;6.90;2.30;;;2.00;99.90;;;2.58;100.00;99538.88;5043202;28;20846;-77
2024/02/02 05:08:21;;;;;;;5.10;3.33;;;2.00;99.90;;;2.62;100.00;99554.06;5042957;28;20524;-76
2024/02/02 05:10:50;;;;;;;7.77;2.70;;;2.00;99.90;;;2.64;100.00;99553.97;5037716;28;20748;-76
2024/02/02 05:13:20;;;;;;;9.63;2.80;;;2.10;99.90;;;2.66;100.00;99549.53;5033716;28;20894;-76
2024/02/02 05:15:48;;;;;;;11.60;4.97;;;2.10;99.90;;;2.62;100.00;99554.06;5035212;28;20461;-76
2024/02/02 05:18:17;;;;;;;8.77;3.23;;;2.10;99.90;;;2.65;100.00;99558.19;5039924;28;21399;-76
2024/02/02 05:20:47;;;;;;;6.93;2.80;;;2.10;99.90;;;2.67;100.00;99562.34;5042759;28;20490;-77
2024/02/02 05:23:15;;;;;;;4.13;1.90;;;2.10;99.90;;;2.67;100.00;99556.34;5041989;28;20456;-76
2024/02/02 05:25:44;;;;;;;5.57;1.80;;;2.10;99.90;;;2.72;100.00;99554.28;5042155;28;20479;-77
2024/02/02 05:28:12;;;;;;;11.53;2.80;;;2.10;99.90;;;2.71;100.00;99562.97;5040065;28;20519;-77
2024/02/02 05:30:42;;;;;;;12.13;2.77;;;2.10;99.90;;;2.71;100.00;99560.41;5041181;28;20523;-76
2024/02/02 05:33:11;;;;;;;4.63;2.20;;;2.20;99.90;;;2.74;100.00;99567.94;5043042;28;21002;-77
2024/02/02 05:35:39;;;;;;;4.33;2.10;;;2.20;99.90;;;2.73;100.00;99561.13;5041635;28;20485;-77
2024/02/02 05:38:08;;;;;;;3.50;2.10;;;2.10;99.90;;;2.78;100.00;99570.19;5041479;28;20492;-77
2024/02/02 05:40:37;;;;;;;4.00;2.30;;;2.20;99.90;;;2.78;100.00;99570.19;5041037;28;20462;-77
2024/02/02 05:43:05;;;;;;;4.50;1.90;;;2.20;99.90;;;2.83;100.00;99567.31;5042423;28;20515;-77
2024/02/02 05:45:34;;;;;;;6.80;2.50;;;2.20;99.90;;;2.82;100.00;99561.31;5041177;28;20469;-76
2024/02/02 05:48:04;;;;;;;12.33;3.03;;;2.20;99.90;;;2.83;100.00;99555.25;5039812;28;20902;-77
2024/02/02 05:50:32;;;;;;;3.57;2.00;;;2.20;99.90;;;2.87;100.00;99548.94;5042348;28;20468;-77
2024/02/02 05:53:00;;;;;;;3.87;2.07;;;2.30;99.90;;;2.89;100.00;99551.41;5041193;28;20460;-77
2024/02/02 05:55:29;;;;;;;8.57;2.13;;;2.40;99.90;;;2.88;100.00;99554.94;5040217;28;20840;-77
2024/02/02 05:57:58;;;;;;;3.40;2.37;;;2.30;99.90;;;2.91;100.00;99555.56;5041468;28;20466;-77
2024/02/02 06:00:27;;;;;;;5.67;2.23;;;2.40;99.90;;;2.95;100.00;99541.50;5040208;28;20461;-77
2024/02/02 06:02:56;;;;;;;9.00;2.70;;;2.40;99.90;;;2.97;100.00;99554.34;5036783;28;20461;-76
2024/02/02 06:05:25;;;;;;;11.37;1.80;;;2.30;99.90;;;3.00;100.00;99554.13;5039195;28;21088;-77
2024/02/02 06:07:54;;;;;;;7.43;1.63;;;2.40;99.90;;;2.98;100.00;99546.50;5036679;28;20497;-76
2024/02/02 06:10:22;;;;;;;7.20;1.90;;;2.30;99.90;;;2.95;100.00;99556.19;5038874;28;20458;-77
2024/02/02 06:12:51;;;;;;;2.80;1.67;;;2.30;99.90;;;2.94;100.00;99557.13;5038474;28;20517;-77
2024/02/02 06:15:19;;;;;;;6.13;2.07;;;2.30;99.90;;;2.93;100.00;99550.28;5039294;28;20473;-77
2024/02/02 06:17:48;;;;;;;6.50;2.17;;;2.30;99.90;;;2.93;100.00;99543.38;5040764;28;20458;-77
2024/02/02 06:20:20;;;;;;;2.67;1.80;;;2.30;99.90;;;2.95;100.00;99548.44;5040754;28;20461;-77
2024/02/02 06:22:50;;;;;;;5.80;2.40;;;2.20;99.90;;;2.89;100.00;99541.09;5039256;28;20469;-77
2024/02/02 06:25:20;;;;;;;5.40;2.20;;;2.40;99.90;;;2.91;100.00;99534.09;5041312;28;20496;-76
2024/02/02 06:27:49;;;;;;;10.73;2.13;;;2.30;99.90;;;2.85;100.00;99524.97;5040122;28;20964;-76
2024/02/02 06:30:17;;;;;;;5.03;2.33;;;2.20;99.90;;;2.85;100.00;99519.81;5035923;28;20461;-81
2024/02/02 06:32:49;;;;;;;3.97;2.10;;;2.20;99.90;;;2.79;100.00;99521.97;5036905;28;20563;-77
2024/02/02 06:35:17;;;;;;;5.57;2.17;;;2.10;99.90;;;2.79;100.00;99527.13;5035364;28;20460;-76
2024/02/02 06:37:46;;;;;;;7.30;2.93;;;2.10;99.90;;;2.71;100.00;99530.22;5038701;28;20481;-76
2024/02/02 06:40:16;;;;;;;12.90;2.53;;;2.10;99.90;;;2.73;100.00;99536.13;5038360;28;21009;-76
2024/02/02 06:42:44;;;;;;;3.87;2.50;;;2.10;99.90;;;2.73;100.00;99535.28;5040665;28;20465;-76
2024/02/02 06:45:13;;;;;;;3.77;2.07;;;2.10;99.90;;;2.66;100.00;99536.63;5041008;28;20465;-76
2024/02/02 06:47:43;;;;;;;3.93;2.43;;;2.00;99.90;;;2.61;100.00;99525.75;5040454;28;20487;-76
2024/02/02 06:50:11;;;;;;;8.20;2.77;;;2.00;99.90;;;2.58;100.00;99531.13;5038286;28;20468;-76
2024/02/02 06:52:40;;;;;;;7.83;2.80;;;1.90;99.90;;;2.59;100.00;99540.53;5038258;28;20963;-76
2024/02/02 06:55:09;;;;;;;6.57;2.23;;;1.90;99.90;;;2.61;100.00;99541.25;5038612;28;20469;-76
2024/02/02 06:57:39;;;;;;;11.87;3.20;;;2.00;99.90;;;2.64;100.00;99551.41;5039749;28;20543;-76
2024/02/02 07:00:14;;;;;;;7.87;2.70;;;1.90;99.90;;;2.62;100.00;99558.41;5040821;28;20966;-75
2024/02/02 07:02:44;;;;;;;4.17;2.53;;;1.90;99.90;;;2.63;100.00;99560.06;5040682;28;20488;-76
2024/02/02 07:05:15;;;;;;;12.90;3.70;;;1.90;99.90;;;2.56;100.00;99563.97;5040925;28;20590;-76
2024/02/02 07:07:44;;;;;;;8.50;2.40;;;1.90;99.90;;;2.52;100.00;99563.34;5040247;28;20491;-76
2024/02/02 07:10:18;;;;;;;3.83;2.40;;;1.90;99.90;;;2.50;100.00;99565.16;5039822;28;20531;-76
2024/02/02 07:12:58;;;;;;;4.57;2.67;;;1.90;99.90;;;2.51;100.00;99562.50;5038653;28;20483;-76
2024/02/02 07:15:31;;;;;;;11.97;2.87;;;1.90;99.90;;;2.50;100.00;99558.25;5040212;28;20459;-76
2024/02/02 07:18:00;;;;;;;8.13;2.53;;;1.90;99.90;;;2.49;100.00;99558.38;5039576;28;20560;-76
2024/02/02 07:21:06;;;;;;;8.30;3.10;;;1.80;99.90;;;2.53;100.00;99565.81;5040562;28;20849;-76
2024/02/02 07:23:39;;;;;;;13.20;2.97;;;1.90;99.90;;;2.52;100.00;99569.34;5039093;28;20507;-76
2024/02/02 07:26:28;;;;;;;6.50;2.23;;;1.90;99.90;;;2.50;100.00;99573.75;5040285;28;20907;-76
2024/02/02 07:28:59;;;;;;;5.17;2.60;;;1.90;99.90;;;2.48;100.00;99567.88;5037180;28;20490;-76
2024/02/02 07:31:38;;;;;;;11.77;3.90;;;1.90;99.90;;;2.53;100.00;99583.88;5036511;28;21146;-76
2024/02/02 07:34:42;;;;;;;5.33;2.37;;;1.90;99.90;;;2.51;100.00;99577.16;5037173;28;20489;-76
2024/02/02 07:37:41;;;;;;;4.10;2.73;;;1.90;99.90;;;2.55;100.00;99583.78;5040093;28;20488;-76
2024/02/02 07:40:58;;;;;;;7.03;2.63;;;1.90;99.90;;;2.61;100.00;99590.28;5040709;28;20472;-77
2024/02/02 07:43:27;;;;;;;13.53;2.77;;;2.00;99.90;;;2.61;100.00;99583.38;5039213;28;20468;-77
2024/02/02 07:45:57;;;;;;;14.03;3.63;;;2.00;99.90;;;2.63;100.00;99575.56;5039881;28;20875;-76
2024/02/02 07:48:26;;;;;;;6.77;2.63;;;2.10;99.90;;;2.68;100.00;99565.72;5038644;28;20486;-77
2024/02/02 07:50:54;;;;;;;9.73;3.40;;;2.10;99.90;;;2.72;100.00;99569.78;5038386;28;20460;-76
2024/02/02 07:53:24;;;;;;;11.40;3.30;;;2.10;99.90;;;2.73;100.00;99568.84;5037183;28;20464;-76
2024/02/02 07:55:53;;;;;;;14.53;4.53;;;2.10;99.90;;;2.80;100.00;99573.53;5036321;28;20471;-76
2024/02/02 07:58:21;;;;;;;11.20;4.03;;;2.20;99.90;;;2.83;100.00;99567.31;5033533;28;20469;-77
2024/02/02 08:00:50;;;;;;;16.63;5.03;;;2.20;99.90;;;2.94;100.00;99570.03;5038562;28;20485;-77
2024/02/02 08:03:20;;;;;;;8.40;5.37;;;2.30;99.90;;;3.03;100.00;99564.25;5040282;28;20483;-77
2024/02/02 08:05:49;;;;;;;9.70;5.23;;;2.50;99.90;;;3.04;100.00;99561.56;5039386;28;20461;-77
2024/02/02 08:08:17;;;;;;;18.57;5.43;;;2.60;99.90;;;3.11;100.00;99566.31;5038841;28;20493;-77
2024/02/02 08:10:48;;;;;;;13.30;6.27;;;2.50;99.90;;;3.17;100.00;99560.75;5036983;28;20550;-77
2024/02/02 08:13:18;;;;;;;21.17;5.97;;;2.60;99.90;;;3.20;100.00;99570.88;5036091;28;20462;-77
2024/02/02 08:15:47;;;;;;;14.63;6.10;;;2.70;99.90;;;3.27;100.00;99567.78;5036097;28;20465;-77
2024/02/02 08:18:15;;;;;;;13.93;6.00;;;2.70;99.90;;;3.34;100.00;99569.00;5037795;28;20550;-77
2024/02/02 08:20:46;;;;;;;18.43;5.57;;;2.80;99.90;;;3.39;100.00;99561.78;5040261;28;20465;-76
2024/02/02 08:23:15;;;;;;;20.97;6.60;;;3.00;99.90;;;3.44;100.00;99564.03;5040663;28;20455;-77
2024/02/02 08:25:43;;;;;;;12.73;6.23;;;3.00;99.90;;;3.50;100.00;99564.47;5039627;28;20498;-77
2024/02/02 08:28:12;;;;;;;14.33;7.17;;;3.00;99.90;;;3.55;100.00;99557.22;5038653;28;21028;-76
2024/02/02 08:30:41;;;;;;;10.63;5.87;;;3.10;99.90;;;3.58;100.00;99560.50;5039832;28;20911;-76
2024/02/02 08:33:09;;;;;;;22.83;6.90;;;3.20;99.90;;;3.61;100.00;99565.50;5038916;28;20459;-76
2024/02/02 08:35:38;;;;;;;11.53;6.60;;;3.10;99.90;;;3.68;100.00;99566.72;5039945;28;20561;-76
2024/02/02 08:38:12;;;;;;;17.17;7.67;;;3.20;99.90;;;3.69;100.00;99568.34;5035653;28;20479;-77
2024/02/02 08:40:43;;;;;;;22.90;7.70;;;3.20;99.90;;;3.77;100.00;99566.06;5035259;28;20516;-76
2024/02/02 08:43:16;;;;;;;19.47;7.53;;;3.30;99.90;;;3.80;100.00;99547.75;5036089;28;20479;-76
2024/02/02 08:46:09;;;;;;;32.90;9.03;;;3.40;99.90;;;3.85;100.00;99549.06;5034171;28;20967;-76
2024/02/02 08:48:41;;;;;;;21.40;8.63;;;3.30;99.90;;;3.88;100.00;99542.88;5039364;28;20926;-76
2024/02/02 08:51:51;;;;;;;29.07;12.20;;;3.40;99.90;;;3.92;100.00;99539.16;5036414;28;20488;-76
2024/02/02 08:54:48;;;;;;;16.90;9.00;;;3.40;99.90;;;3.95;100.00;99536.34;5013551;28;20460;-76
2024/02/02 08:57:37;;;;;;;19.60;9.03;;;3.50;99.90;;;4.00;100.00;99527.31;5037577;28;20496;-76
2024/02/02 09:00:17;;;;;;;21.47;7.27;;;3.60;99.90;;;4.02;100.00;99525.44;5037204;28;20479;-76
2024/02/02 09:03:24;;;;;;;18.47;8.40;;;3.50;99.90;;;4.03;100.00;99521.06;5023551;28;20511;-76
2024/02/02 09:05:56;;;;;;;17.60;7.80;;;3.60;99.90;;;4.07;100.00;99528.50;5031698;28;20966;-76
2024/02/02 09:08:38;;;;;;;13.37;7.70;;;3.70;99.90;;;4.11;100.00;99530.88;5037393;28;20453;-76
2024/02/02 09:11:26;;;;;;;21.83;8.07;;;3.70;99.90;;;4.14;100.00;99538.41;5035874;28;20472;-76
2024/02/02 09:14:17;;;;;;;18.97;7.93;;;3.70;99.90;;;4.16;100.00;99537.41;5038527;28;20982;-75
2024/02/02 09:16:50;;;;;;;23.23;8.30;;;3.80;99.90;;;4.19;100.00;99531.16;5036982;28;21031;-75
2024/02/02 09:19:30;;;;;;;17.70;8.27;;;3.80;99.90;;;4.21;100.00;99539.63;5043437;28;20672;-76
2024/02/02 09:22:03;;;;;;;19.03;8.00;;;3.70;99.90;;;4.25;100.00;99534.13;5043134;28;20835;-76
2024/02/02 09:24:42;;;;;;;17.63;7.40;;;3.80;99.90;;;4.29;100.00;99533.00;5045921;28;20469;-76
2024/02/02 09:27:15;;;;;;;12.67;6.57;;;3.80;99.90;;;4.33;100.00;99541.34;5045447;28;20476;-76
2024/02/02 09:29:49;;;;;;;15.07;5.10;;;3.80;99.90;;;4.30;100.00;99539.81;5043580;28;20588;-76
2024/02/02 09:32:18;;;;;;;21.03;6.63;;;3.70;99.90;;;4.37;100.00;99547.97;5039894;28;20696;-76
2024/02/02 09:34:47;;;;;;;18.40;7.63;;;3.80;99.90;;;4.39;100.00;99540.91;5041769;28;20465;-76
2024/02/02 09:37:22;;;;;;;12.67;7.37;;;3.80;99.90;;;4.44;100.00;99544.00;5041486;28;20483;-76
2024/02/02 09:39:54;;;;;;;16.53;6.77;;;4.00;99.90;;;4.46;100.00;99544.72;5040519;28;20459;-76
2024/02/02 09:42:50;;;;;;;19.73;7.67;;;4.10;99.90;;;4.50;100.00;99544.38;5043181;28;20951;-76
2024/02/02 09:45:39;;;;;;;13.40;7.20;;;3.90;99.90;;;4.57;100.00;99542.16;5042504;28;20969;-75
2024/02/02 09:48:25;;;;;;;18.47;8.03;;;4.10;99.90;;;4.63;100.00;99541.72;5040138;28;20751;-76
2024/02/02 09:51:06;;;;;;;19.43;6.83;;;4.20;99.90;;;4.66;100.00;99551.00;5041374;28;20520;-76
2024/02/02 09:54:22;;;;;;;19.63;6.50;;;4.20;99.90;;;4.72;100.00;99553.97;5040784;28;20457;-76
2024/02/02 09:57:03;;;;;;;13.63;6.40;;;4.20;99.90;;;4.75;100.00;99553.78;5039124;28;20472;-76
2024/02/02 09:59:51;;;;;;;9.33;5.00;;;4.20;99.90;;;4.79;100.00;99551.78;5041029;28;20461;-76
2024/02/02 10:02:54;;;;;;;9.60;6.20;;;4.30;99.90;;;4.83;100.00;99543.66;5039748;28;21086;-76
2024/02/02 10:05:40;;;;;;;8.43;5.07;;;4.30;99.90;;;4.86;100.00;99537.44;5041160;28;20829;-76
2024/02/02 10:08:43;;;;;;;14.80;6.03;;;4.20;99.90;;;4.90;100.00;99550.03;5041463;28;20458;-76
2024/02/02 10:11:50;;;;;;;13.87;5.50;;;4.40;99.90;;;4.97;100.00;99545.22;5042843;28;20464;-76
2024/02/02 10:14:55;;;;;;;10.73;6.07;;;4.50;99.90;;;5.03;100.00;99539.59;5042583;28;20450;-76
2024/02/02 10:17:45;;;;;;;13.37;5.97;;;4.50;99.90;;;5.07;100.00;99551.34;5042172;28;20464;-76
2024/02/02 10:20:32;;;;;;;10.93;5.60;;;4.50;99.90;;;5.13;100.00;99550.09;5043393;28;20839;-76
2024/02/02 10:23:43;;;;;;;10.77;6.00;;;4.60;99.90;;;5.19;100.00;99550.44;5043818;28;20469;-76
2024/02/02 10:26:47;;;;;;;19.80;5.80;;;4.70;99.90;;;5.26;100.00;99548.22;5043738;28;20469;-76
2024/02/02 10:29:30;;;;;;;13.03;5.43;;;4.70;99.90;;;5.30;100.00;99560.84;5043091;28;20495;-76
2024/02/02 10:32:35;;;;;;;16.07;5.67;;;4.60;99.90;;;5.35;100.00;99556.13;5042527;28;20844;-76
2024/02/02 10:35:21;;;;;;;11.30;4.93;;;4.90;99.90;;;5.40;100.00;99551.41;5044822;28;21003;-76
2024/02/02 10:37:51;;;;;;;9.97;4.70;;;4.90;99.90;;;5.43;100.00;99558.97;5043453;28;20793;-76
2024/02/02 10:40:40;;;;;;;10.67;4.90;;;4.90;99.90;;;5.48;100.00;99549.03;5043379;28;20484;-76
2024/02/02 10:43:29;;;;;;;9.23;5.00;;;5.00;99.90;;;5.52;100.00;99550.47;5043975;28;20466;-76
2024/02/02 10:46:21;;;;;;;13.60;4.13;;;5.00;99.90;;;5.56;100.00;99533.72;5042054;28;20552;-76